Lumberport, West Virginia
Current Conditions -  °F | °C
As of 12:53 AM on Thursday 23 Oct 2014 (Local Time) from KCKB Reporting Station
Overcast Overcast  
Wind Chill: 44°   Ceiling: 2000
Heat Index: 47°   Visibility: 10mi
Dew Point: 41°   Wind: 7mph
Humidity: 80%   Direction: 350°N
Pressure: 30.15"   Gusts: NA
Location:  39.37°N, 80.35°W
Report Text: KCKB 230453Z 35006KT 10SM OVC020 08/05 A3015 RMK AO2 SLP208 T00830050 400940072
Loading
Personal Weather Stations






























Interactive Weather Map
Tropical Storm Tracking
New forecast layout! Learn more

10-Day Weather Forecast

Advertisements
Track Severe Weather on mobile